Share

Bunch, OK (74931)

9:45 AM CDT on April 23, 2014 (GMT -0500)
The Leaf PH (KOKPARKH3) Elev 814 ft | 35.77 °N, 94.91 °W | Change Station

Current weather conditions updated 9 minutes ago

Clear
Clear
68.9 °F
Feels Like 68.9 °F
N
8.9
Wind Variable Wind from SSE
Sunrise 6:36 AM
Sunset 7:59 PM
Moon Waning Crescent

Today is forecast to be nearly the same temperature as yesterday. Periods of rain late tonight.

Pressure 29.97 in
Visibility 10.0 miles
Clouds Clear
Dew Point 68 °F
Humidity 98%
Rainfall 0.00 in
Snow Depth Not available.
UV 4 out of 16
Pollen 9.30 out of 12
Air Quality Not available.
Flu Activity Regional
METAR KTQH 231435Z AUTO 14011G17KT 10SM CLR 18/06 A2997 RMK AO2

More Conditions Fewer Conditions

Pressure 29.97 in
Visibility 10.0 miles
Clouds Clear
Dew Point 68 °F
Humidity 98%
Rainfall 0.00 in
Snow Depth Not available.
UV 4 out of 16
Pollen 9.30 out of 12
Air Quality Not available.
Flu Activity Regional
METAR KTQH 231435Z AUTO 14011G17KT 10SM CLR 18/06 A2997 RMK AO2

More Conditions Fewer Conditions

10-Day Weather Forecast

Almanac

Astronomy

Apr. 23, 2014 Rise Set
Actual Time 6:36 AM CDT 7:59 PM CDT
Civil Twilight 6:09 AM CDT 8:25 PM CDT
Nautical Twilight 5:37 AM CDT 8:58 PM CDT
Astronomical Twilight 5:03 AM CDT 9:31 PM CDT
Moon 2:56 AM CDT 2:19 PM CDT
Length of Visible Light 14h 16m
Length of Day
13h 22m
Tomorrow will be 2m 2s longer.
Waning Crescent, 35% of the Moon is Illuminated
Today
Waning Crescent
Apr 29
New
May 6
First Quarter
May 14
Full
May 21
Last Quarter

Today's Extremes

State Highs State Lows

Community

  • spring flowers
    spring flowers
  • Earth Day Spectrum Ove' Blue
    Earth Day Spectrum Ove' Blue
  • BARN B&W
    BARN B&W
  • April Sunset
    April Sunset
  • Waiting..
    Waiting..

WunderPhotos

Upload Photos

1,704,299 photos uploaded!

Nearby

Snow Depth

Station Depth Elevation
No new snow has been reported.

Coastal Water Temperatures

Place Temperature
No Stations Reporting

Earthquake Activity

City Distance Mag. Time & Date
No recent earthquake activity has been reported nearby.
Minimum magnitude displayed is 2.5.

Nearby Weather Stations

Station Location Temp. Dew Point Humidity Wind Precip. Elev Updated Type
The Leaf PH, Park Hill, OK 68.9 °F 68 °F 98% SSE  at  8.9 mph - / hr 814 ft 9:36 AM CDT Normal
Tenkiller Harbor, Park Hill, OK 67.5 °F 45 °F 44% ESE  at  10.4 mph 0.00 in / hr 751 ft 9:45 AM CDT Rapid Fire
MesoWest VIANN , Vian, OK 51 °F - - North  at  - 0.00 in / hr 518 ft 6:35 AM CDT MADIS
MesoWest MULDRO , Roland, OK 54 °F - - North  at  - 0.00 in / hr 509 ft 7:15 AM CDT MADIS

Show More Stations Show Fewer Stations

What do you think?

We're not finished. Please let us know what you like, what you don't like, and what you are still missing.